sensor_id;sensor_type;location;lat;lon;timestamp;temperature;humidity
78788;DHT22;68131;52.508;5.502;2023-12-22T00:01:37;8.40;66.90
78788;DHT22;68131;52.508;5.502;2023-12-22T00:04:09;8.40;66.50
78788;DHT22;68131;52.508;5.502;2023-12-22T00:06:40;8.40;66.40
78788;DHT22;68131;52.508;5.502;2023-12-22T00:09:12;8.40;66.60
78788;DHT22;68131;52.508;5.502;2023-12-22T00:11:41;8.50;66.50
78788;DHT22;68131;52.508;5.502;2023-12-22T00:14:10;8.40;66.60
78788;DHT22;68131;52.508;5.502;2023-12-22T00:16:39;8.40;66.30
78788;DHT22;68131;52.508;5.502;2023-12-22T00:19:08;8.40;66.40
78788;DHT22;68131;52.508;5.502;2023-12-22T00:21:38;8.40;66.70
78788;DHT22;68131;52.508;5.502;2023-12-22T00:24:07;8.50;66.80
78788;DHT22;68131;52.508;5.502;2023-12-22T00:26:38;8.50;67.10
78788;DHT22;68131;52.508;5.502;2023-12-22T00:29:07;8.50;67.40
78788;DHT22;68131;52.508;5.502;2023-12-22T00:31:37;8.50;67.40
78788;DHT22;68131;52.508;5.502;2023-12-22T00:34:06;8.50;67.60
78788;DHT22;68131;52.508;5.502;2023-12-22T00:36:35;8.50;67.80
78788;DHT22;68131;52.508;5.502;2023-12-22T00:39:04;8.50;67.90
78788;DHT22;68131;52.508;5.502;2023-12-22T00:41:33;8.50;68.30
78788;DHT22;68131;52.508;5.502;2023-12-22T00:44:05;8.50;68.40
78788;DHT22;68131;52.508;5.502;2023-12-22T00:46:34;8.50;68.70
78788;DHT22;68131;52.508;5.502;2023-12-22T00:49:03;8.50;68.90
78788;DHT22;68131;52.508;5.502;2023-12-22T00:51:32;8.50;69.10
78788;DHT22;68131;52.508;5.502;2023-12-22T00:54:01;8.50;69.40
78788;DHT22;68131;52.508;5.502;2023-12-22T00:56:30;8.50;69.70
78788;DHT22;68131;52.508;5.502;2023-12-22T00:59:00;8.50;69.90
78788;DHT22;68131;52.508;5.502;2023-12-22T01:01:31;8.50;70.10
78788;DHT22;68131;52.508;5.502;2023-12-22T01:04:00;8.50;70.30
78788;DHT22;68131;52.508;5.502;2023-12-22T01:06:29;8.50;70.30
78788;DHT22;68131;52.508;5.502;2023-12-22T01:08:59;8.50;70.30
78788;DHT22;68131;52.508;5.502;2023-12-22T01:11:28;8.50;70.30
78788;DHT22;68131;52.508;5.502;2023-12-22T01:13:57;8.50;70.10
78788;DHT22;68131;52.508;5.502;2023-12-22T01:16:26;8.50;70.00
78788;DHT22;68131;52.508;5.502;2023-12-22T01:18:58;8.50;69.90
78788;DHT22;68131;52.508;5.502;2023-12-22T01:21:27;8.50;69.50
78788;DHT22;68131;52.508;5.502;2023-12-22T01:23:56;8.40;69.40
78788;DHT22;68131;52.508;5.502;2023-12-22T01:26:26;8.40;69.10
78788;DHT22;68131;52.508;5.502;2023-12-22T01:28:55;8.40;68.90
78788;DHT22;68131;52.508;5.502;2023-12-22T01:31:25;8.40;68.90
78788;DHT22;68131;52.508;5.502;2023-12-22T01:33:57;8.40;68.50
78788;DHT22;68131;52.508;5.502;2023-12-22T01:36:26;8.30;68.40
78788;DHT22;68131;52.508;5.502;2023-12-22T01:38:55;8.40;68.30
78788;DHT22;68131;52.508;5.502;2023-12-22T01:41:24;8.40;68.20
78788;DHT22;68131;52.508;5.502;2023-12-22T01:43:53;8.30;68.60
78788;DHT22;68131;52.508;5.502;2023-12-22T01:46:22;8.10;69.20
78788;DHT22;68131;52.508;5.502;2023-12-22T01:48:52;8.00;69.80
78788;DHT22;68131;52.508;5.502;2023-12-22T01:51:23;7.80;70.40
78788;DHT22;68131;52.508;5.502;2023-12-22T01:53:53;7.70;70.70
78788;DHT22;68131;52.508;5.502;2023-12-22T01:56:22;7.60;71.00
78788;DHT22;68131;52.508;5.502;2023-12-22T01:58:53;7.50;71.20
78788;DHT22;68131;52.508;5.502;2023-12-22T02:01:24;7.40;71.40
78788;DHT22;68131;52.508;5.502;2023-12-22T02:03:54;7.40;71.70
78788;DHT22;68131;52.508;5.502;2023-12-22T02:06:27;7.40;71.90
78788;DHT22;68131;52.508;5.502;2023-12-22T02:08:58;7.40;72.00
78788;DHT22;68131;52.508;5.502;2023-12-22T02:11:27;7.40;72.20
78788;DHT22;68131;52.508;5.502;2023-12-22T02:13:57;7.40;72.30
78788;DHT22;68131;52.508;5.502;2023-12-22T02:16:32;7.50;72.40
78788;DHT22;68131;52.508;5.502;2023-12-22T02:19:15;7.50;72.60
78788;DHT22;68131;52.508;5.502;2023-12-22T02:22:02;7.50;72.50
78788;DHT22;68131;52.508;5.502;2023-12-22T02:24:42;7.50;72.60
78788;DHT22;68131;52.508;5.502;2023-12-22T02:27:18;7.50;72.50
78788;DHT22;68131;52.508;5.502;2023-12-22T02:29:54;7.50;72.70
78788;DHT22;68131;52.508;5.502;2023-12-22T02:32:30;7.50;72.60
78788;DHT22;68131;52.508;5.502;2023-12-22T02:35:03;7.40;72.60
78788;DHT22;68131;52.508;5.502;2023-12-22T02:37:35;7.40;72.60
78788;DHT22;68131;52.508;5.502;2023-12-22T02:40:08;7.50;72.70
78788;DHT22;68131;52.508;5.502;2023-12-22T02:42:38;7.50;72.70
78788;DHT22;68131;52.508;5.502;2023-12-22T02:45:14;7.50;72.60
78788;DHT22;68131;52.508;5.502;2023-12-22T02:47:43;7.50;72.50
78788;DHT22;68131;52.508;5.502;2023-12-22T02:50:14;7.50;72.30
78788;DHT22;68131;52.508;5.502;2023-12-22T02:52:43;7.60;72.10
78788;DHT22;68131;52.508;5.502;2023-12-22T02:55:16;7.60;72.00
78788;DHT22;68131;52.508;5.502;2023-12-22T02:57:45;7.60;71.80
78788;DHT22;68131;52.508;5.502;2023-12-22T03:00:15;7.70;71.80
78788;DHT22;68131;52.508;5.502;2023-12-22T03:02:44;7.70;71.80
78788;DHT22;68131;52.508;5.502;2023-12-22T03:05:13;7.70;71.80
78788;DHT22;68131;52.508;5.502;2023-12-22T03:07:42;7.70;71.90
78788;DHT22;68131;52.508;5.502;2023-12-22T03:10:11;7.80;71.80
78788;DHT22;68131;52.508;5.502;2023-12-22T03:12:43;7.70;71.80
78788;DHT22;68131;52.508;5.502;2023-12-22T03:15:12;7.70;71.70
78788;DHT22;68131;52.508;5.502;2023-12-22T03:17:42;7.70;71.60
78788;DHT22;68131;52.508;5.502;2023-12-22T03:20:11;7.60;71.70
78788;DHT22;68131;52.508;5.502;2023-12-22T03:22:40;7.60;71.70
78788;DHT22;68131;52.508;5.502;2023-12-22T03:25:09;7.60;71.70
78788;DHT22;68131;52.508;5.502;2023-12-22T03:27:38;7.60;71.90
78788;DHT22;68131;52.508;5.502;2023-12-22T03:30:11;7.60;72.00
78788;DHT22;68131;52.508;5.502;2023-12-22T03:32:42;7.60;72.00
78788;DHT22;68131;52.508;5.502;2023-12-22T03:35:11;7.60;72.00
78788;DHT22;68131;52.508;5.502;2023-12-22T03:37:40;7.60;72.00
78788;DHT22;68131;52.508;5.502;2023-12-22T03:40:09;7.60;72.10
78788;DHT22;68131;52.508;5.502;2023-12-22T03:42:39;7.60;72.20
78788;DHT22;68131;52.508;5.502;2023-12-22T03:45:10;7.60;72.30
78788;DHT22;68131;52.508;5.502;2023-12-22T03:47:39;7.60;72.40
78788;DHT22;68131;52.508;5.502;2023-12-22T03:50:09;7.60;72.40
78788;DHT22;68131;52.508;5.502;2023-12-22T03:52:38;7.60;72.50
78788;DHT22;68131;52.508;5.502;2023-12-22T03:55:07;7.60;72.50
78788;DHT22;68131;52.508;5.502;2023-12-22T03:57:36;7.60;72.50
78788;DHT22;68131;52.508;5.502;2023-12-22T04:00:07;7.60;72.50
78788;DHT22;68131;52.508;5.502;2023-12-22T04:02:39;7.70;72.50
78788;DHT22;68131;52.508;5.502;2023-12-22T04:05:11;7.70;72.50
78788;DHT22;68131;52.508;5.502;2023-12-22T04:07:40;7.70;72.50
78788;DHT22;68131;52.508;5.502;2023-12-22T04:10:09;7.70;72.50
78788;DHT22;68131;52.508;5.502;2023-12-22T04:12:38;7.70;72.50
78788;DHT22;68131;52.508;5.502;2023-12-22T04:15:08;7.80;72.50
78788;DHT22;68131;52.508;5.502;2023-12-22T04:17:39;7.80;72.50
78788;DHT22;68131;52.508;5.502;2023-12-22T04:20:09;7.90;72.60
78788;DHT22;68131;52.508;5.502;2023-12-22T04:22:38;7.90;72.30
78788;DHT22;68131;52.508;5.502;2023-12-22T04:25:08;7.90;72.10
78788;DHT22;68131;52.508;5.502;2023-12-22T04:27:37;8.00;71.80
78788;DHT22;68131;52.508;5.502;2023-12-22T04:30:08;8.00;71.20
78788;DHT22;68131;52.508;5.502;2023-12-22T04:32:40;8.00;70.60
78788;DHT22;68131;52.508;5.502;2023-12-22T04:35:09;8.10;70.20
78788;DHT22;68131;52.508;5.502;2023-12-22T04:37:38;8.10;70.00
78788;DHT22;68131;52.508;5.502;2023-12-22T04:40:08;8.10;70.10
78788;DHT22;68131;52.508;5.502;2023-12-22T04:42:37;8.10;70.10
78788;DHT22;68131;52.508;5.502;2023-12-22T04:45:07;8.10;70.20
78788;DHT22;68131;52.508;5.502;2023-12-22T04:47:39;8.20;70.30
78788;DHT22;68131;52.508;5.502;2023-12-22T04:50:08;8.20;70.50
78788;DHT22;68131;52.508;5.502;2023-12-22T04:52:37;8.20;70.60
78788;DHT22;68131;52.508;5.502;2023-12-22T04:55:07;8.20;70.60
78788;DHT22;68131;52.508;5.502;2023-12-22T04:57:36;8.20;70.70
78788;DHT22;68131;52.508;5.502;2023-12-22T05:00:06;8.20;70.70
78788;DHT22;68131;52.508;5.502;2023-12-22T05:02:35;8.20;70.80
78788;DHT22;68131;52.508;5.502;2023-12-22T05:05:08;8.20;70.80
78788;DHT22;68131;52.508;5.502;2023-12-22T05:07:37;8.30;70.90
78788;DHT22;68131;52.508;5.502;2023-12-22T05:10:07;8.30;71.00
78788;DHT22;68131;52.508;5.502;2023-12-22T05:12:36;8.30;71.10
78788;DHT22;68131;52.508;5.502;2023-12-22T05:15:06;8.30;71.10
78788;DHT22;68131;52.508;5.502;2023-12-22T05:17:36;8.40;71.20
78788;DHT22;68131;52.508;5.502;2023-12-22T05:20:10;8.40;71.30
78788;DHT22;68131;52.508;5.502;2023-12-22T05:22:40;8.40;71.40
78788;DHT22;68131;52.508;5.502;2023-12-22T05:25:09;8.40;71.50
78788;DHT22;68131;52.508;5.502;2023-12-22T05:27:38;8.40;71.60
78788;DHT22;68131;52.508;5.502;2023-12-22T05:30:12;8.40;71.70
78788;DHT22;68131;52.508;5.502;2023-12-22T05:32:41;8.50;71.70
78788;DHT22;68131;52.508;5.502;2023-12-22T05:35:13;8.50;71.90
78788;DHT22;68131;52.508;5.502;2023-12-22T05:37:42;8.50;72.00
78788;DHT22;68131;52.508;5.502;2023-12-22T05:40:12;8.50;72.00
78788;DHT22;68131;52.508;5.502;2023-12-22T05:42:41;8.60;72.10
78788;DHT22;68131;52.508;5.502;2023-12-22T05:45:10;8.60;72.20
78788;DHT22;68131;52.508;5.502;2023-12-22T05:47:40;8.60;72.30
78788;DHT22;68131;52.508;5.502;2023-12-22T05:50:09;8.60;72.40
78788;DHT22;68131;52.508;5.502;2023-12-22T05:52:41;8.60;72.40
78788;DHT22;68131;52.508;5.502;2023-12-22T05:55:11;8.60;72.40
78788;DHT22;68131;52.508;5.502;2023-12-22T05:57:40;8.60;72.60
78788;DHT22;68131;52.508;5.502;2023-12-22T06:00:12;8.60;72.70
78788;DHT22;68131;52.508;5.502;2023-12-22T06:02:41;8.60;72.70
78788;DHT22;68131;52.508;5.502;2023-12-22T06:05:10;8.50;72.60
78788;DHT22;68131;52.508;5.502;2023-12-22T06:07:42;8.40;72.60
78788;DHT22;68131;52.508;5.502;2023-12-22T06:10:11;8.40;72.60
78788;DHT22;68131;52.508;5.502;2023-12-22T06:12:40;8.40;72.50
78788;DHT22;68131;52.508;5.502;2023-12-22T06:15:10;8.30;71.90
78788;DHT22;68131;52.508;5.502;2023-12-22T06:17:39;8.30;71.80
78788;DHT22;68131;52.508;5.502;2023-12-22T06:20:09;8.30;71.60
78788;DHT22;68131;52.508;5.502;2023-12-22T06:22:38;8.20;71.90
78788;DHT22;68131;52.508;5.502;2023-12-22T06:25:11;8.20;72.30
78788;DHT22;68131;52.508;5.502;2023-12-22T06:27:40;8.10;73.10
78788;DHT22;68131;52.508;5.502;2023-12-22T06:30:10;8.10;73.40
78788;DHT22;68131;52.508;5.502;2023-12-22T06:32:43;8.00;73.50
78788;DHT22;68131;52.508;5.502;2023-12-22T06:35:16;8.00;73.70
78788;DHT22;68131;52.508;5.502;2023-12-22T06:37:49;8.00;74.30
78788;DHT22;68131;52.508;5.502;2023-12-22T06:40:23;8.00;74.30
78788;DHT22;68131;52.508;5.502;2023-12-22T06:42:52;8.00;74.40
78788;DHT22;68131;52.508;5.502;2023-12-22T06:45:21;8.00;74.40
78788;DHT22;68131;52.508;5.502;2023-12-22T06:47:50;8.00;74.50
78788;DHT22;68131;52.508;5.502;2023-12-22T06:50:19;8.00;74.50
78788;DHT22;68131;52.508;5.502;2023-12-22T06:52:48;8.00;74.40
78788;DHT22;68131;52.508;5.502;2023-12-22T06:55:18;8.10;74.60
78788;DHT22;68131;52.508;5.502;2023-12-22T06:57:49;8.10;74.80
78788;DHT22;68131;52.508;5.502;2023-12-22T07:00:19;8.10;74.70
78788;DHT22;68131;52.508;5.502;2023-12-22T07:02:48;8.10;74.70
78788;DHT22;68131;52.508;5.502;2023-12-22T07:05:33;8.10;74.90
78788;DHT22;68131;52.508;5.502;2023-12-22T07:08:05;8.10;74.90
78788;DHT22;68131;52.508;5.502;2023-12-22T07:10:35;8.20;74.80
78788;DHT22;68131;52.508;5.502;2023-12-22T07:13:06;8.20;74.90
78788;DHT22;68131;52.508;5.502;2023-12-22T07:15:35;8.30;74.80
78788;DHT22;68131;52.508;5.502;2023-12-22T07:18:05;8.30;74.80
78788;DHT22;68131;52.508;5.502;2023-12-22T07:20:37;8.40;74.90
78788;DHT22;68131;52.508;5.502;2023-12-22T07:23:06;8.40;74.90
78788;DHT22;68131;52.508;5.502;2023-12-22T07:25:36;8.50;74.90
78788;DHT22;68131;52.508;5.502;2023-12-22T07:28:08;8.50;74.80
78788;DHT22;68131;52.508;5.502;2023-12-22T07:30:37;8.60;74.80
78788;DHT22;68131;52.508;5.502;2023-12-22T07:33:06;8.60;74.80
78788;DHT22;68131;52.508;5.502;2023-12-22T07:35:35;8.70;74.80
78788;DHT22;68131;52.508;5.502;2023-12-22T07:38:04;8.70;74.80
78788;DHT22;68131;52.508;5.502;2023-12-22T07:40:35;8.70;74.70
78788;DHT22;68131;52.508;5.502;2023-12-22T07:43:08;8.80;74.70
78788;DHT22;68131;52.508;5.502;2023-12-22T07:45:37;8.80;74.70
78788;DHT22;68131;52.508;5.502;2023-12-22T07:48:07;8.80;74.60
78788;DHT22;68131;52.508;5.502;2023-12-22T07:50:36;8.90;74.60
78788;DHT22;68131;52.508;5.502;2023-12-22T07:53:05;8.90;74.60
78788;DHT22;68131;52.508;5.502;2023-12-22T07:55:34;8.90;74.60
78788;DHT22;68131;52.508;5.502;2023-12-22T07:58:04;8.90;74.60
78788;DHT22;68131;52.508;5.502;2023-12-22T08:00:36;9.00;74.60
78788;DHT22;68131;52.508;5.502;2023-12-22T08:03:05;9.00;74.70
78788;DHT22;68131;52.508;5.502;2023-12-22T08:05:36;9.00;74.60
78788;DHT22;68131;52.508;5.502;2023-12-22T08:08:05;9.00;74.60
78788;DHT22;68131;52.508;5.502;2023-12-22T08:10:38;9.00;74.70
78788;DHT22;68131;52.508;5.502;2023-12-22T08:13:09;9.00;74.70
78788;DHT22;68131;52.508;5.502;2023-12-22T08:15:41;9.10;74.70
78788;DHT22;68131;52.508;5.502;2023-12-22T08:18:10;9.10;74.80
78788;DHT22;68131;52.508;5.502;2023-12-22T08:20:40;9.00;75.00
78788;DHT22;68131;52.508;5.502;2023-12-22T08:23:14;9.00;75.10
78788;DHT22;68131;52.508;5.502;2023-12-22T08:25:43;9.00;75.40
78788;DHT22;68131;52.508;5.502;2023-12-22T08:28:14;9.00;75.50
78788;DHT22;68131;52.508;5.502;2023-12-22T08:30:45;9.10;75.50
78788;DHT22;68131;52.508;5.502;2023-12-22T08:33:14;9.10;75.60
78788;DHT22;68131;52.508;5.502;2023-12-22T08:35:44;9.10;75.80
78788;DHT22;68131;52.508;5.502;2023-12-22T08:38:13;9.10;75.90
78788;DHT22;68131;52.508;5.502;2023-12-22T08:40:43;9.10;76.00
78788;DHT22;68131;52.508;5.502;2023-12-22T08:43:14;9.10;76.30
78788;DHT22;68131;52.508;5.502;2023-12-22T08:45:46;9.10;76.30
78788;DHT22;68131;52.508;5.502;2023-12-22T08:48:15;9.10;76.40
78788;DHT22;68131;52.508;5.502;2023-12-22T08:50:44;9.10;76.30
78788;DHT22;68131;52.508;5.502;2023-12-22T08:53:13;9.10;76.50
78788;DHT22;68131;52.508;5.502;2023-12-22T08:55:42;9.10;76.70
78788;DHT22;68131;52.508;5.502;2023-12-22T08:58:11;9.10;76.80
78788;DHT22;68131;52.508;5.502;2023-12-22T09:00:40;9.10;77.40
78788;DHT22;68131;52.508;5.502;2023-12-22T09:03:12;9.00;77.60
78788;DHT22;68131;52.508;5.502;2023-12-22T09:05:41;9.10;77.90
78788;DHT22;68131;52.508;5.502;2023-12-22T09:08:10;9.10;78.00
78788;DHT22;68131;52.508;5.502;2023-12-22T09:10:40;9.10;78.10
78788;DHT22;68131;52.508;5.502;2023-12-22T09:13:09;9.10;78.40
78788;DHT22;68131;52.508;5.502;2023-12-22T09:15:38;9.20;78.60
78788;DHT22;68131;52.508;5.502;2023-12-22T09:18:07;9.20;78.50
78788;DHT22;68131;52.508;5.502;2023-12-22T09:20:39;9.30;78.70
78788;DHT22;68131;52.508;5.502;2023-12-22T09:23:08;9.30;78.70
78788;DHT22;68131;52.508;5.502;2023-12-22T09:25:37;9.40;78.60
78788;DHT22;68131;52.508;5.502;2023-12-22T09:28:07;9.40;78.60
78788;DHT22;68131;52.508;5.502;2023-12-22T09:30:36;9.50;78.50
78788;DHT22;68131;52.508;5.502;2023-12-22T09:33:05;9.50;78.50
78788;DHT22;68131;52.508;5.502;2023-12-22T09:35:34;9.50;78.40
78788;DHT22;68131;52.508;5.502;2023-12-22T09:38:06;9.50;78.30
78788;DHT22;68131;52.508;5.502;2023-12-22T09:40:35;9.60;78.30
78788;DHT22;68131;52.508;5.502;2023-12-22T09:43:06;9.60;78.10
78788;DHT22;68131;52.508;5.502;2023-12-22T09:45:36;9.60;78.10
78788;DHT22;68131;52.508;5.502;2023-12-22T09:48:06;9.60;78.00
78788;DHT22;68131;52.508;5.502;2023-12-22T09:50:37;9.70;77.90
78788;DHT22;68131;52.508;5.502;2023-12-22T09:53:12;9.70;77.70
78788;DHT22;68131;52.508;5.502;2023-12-22T09:55:43;9.70;77.60
78788;DHT22;68131;52.508;5.502;2023-12-22T09:58:14;9.80;77.50
78788;DHT22;68131;52.508;5.502;2023-12-22T10:00:43;9.70;77.50
78788;DHT22;68131;52.508;5.502;2023-12-22T10:03:13;9.80;77.50
78788;DHT22;68131;52.508;5.502;2023-12-22T10:05:44;9.80;77.30
78788;DHT22;68131;52.508;5.502;2023-12-22T10:08:18;9.70;77.30
78788;DHT22;68131;52.508;5.502;2023-12-22T10:10:54;9.80;77.20
78788;DHT22;68131;52.508;5.502;2023-12-22T10:13:27;9.80;77.30
78788;DHT22;68131;52.508;5.502;2023-12-22T10:15:56;9.80;77.30
78788;DHT22;68131;52.508;5.502;2023-12-22T10:18:26;9.80;77.30
78788;DHT22;68131;52.508;5.502;2023-12-22T10:20:55;9.80;77.40
78788;DHT22;68131;52.508;5.502;2023-12-22T10:23:26;9.80;77.40
78788;DHT22;68131;52.508;5.502;2023-12-22T10:25:57;9.80;77.30
78788;DHT22;68131;52.508;5.502;2023-12-22T10:28:27;9.90;77.30
78788;DHT22;68131;52.508;5.502;2023-12-22T10:30:56;9.80;77.40
78788;DHT22;68131;52.508;5.502;2023-12-22T10:33:32;9.90;77.40
78788;DHT22;68131;52.508;5.502;2023-12-22T10:36:01;9.90;77.50
78788;DHT22;68131;52.508;5.502;2023-12-22T10:38:35;10.00;77.40
78788;DHT22;68131;52.508;5.502;2023-12-22T10:41:05;10.00;77.40
78788;DHT22;68131;52.508;5.502;2023-12-22T10:43:38;10.00;77.40
78788;DHT22;68131;52.508;5.502;2023-12-22T10:46:08;10.10;77.40
78788;DHT22;68131;52.508;5.502;2023-12-22T10:48:40;10.10;77.20
78788;DHT22;68131;52.508;5.502;2023-12-22T10:51:10;10.10;77.10
78788;DHT22;68131;52.508;5.502;2023-12-22T10:53:45;10.20;77.00
78788;DHT22;68131;52.508;5.502;2023-12-22T10:56:14;10.20;76.80
78788;DHT22;68131;52.508;5.502;2023-12-22T10:58:42;10.20;76.70
78788;DHT22;68131;52.508;5.502;2023-12-22T11:01:12;10.20;76.70
78788;DHT22;68131;52.508;5.502;2023-12-22T11:03:44;10.30;76.40
78788;DHT22;68131;52.508;5.502;2023-12-22T11:06:17;10.30;76.20
78788;DHT22;68131;52.508;5.502;2023-12-22T11:08:52;10.30;76.00
78788;DHT22;68131;52.508;5.502;2023-12-22T11:11:27;10.30;76.00
78788;DHT22;68131;52.508;5.502;2023-12-22T11:13:57;10.30;76.00
78788;DHT22;68131;52.508;5.502;2023-12-22T11:16:28;10.30;76.10
78788;DHT22;68131;52.508;5.502;2023-12-22T11:18:57;10.40;76.10
78788;DHT22;68131;52.508;5.502;2023-12-22T11:21:28;10.40;76.00
78788;DHT22;68131;52.508;5.502;2023-12-22T11:24:00;10.50;75.70
78788;DHT22;68131;52.508;5.502;2023-12-22T11:26:30;10.50;75.60
78788;DHT22;68131;52.508;5.502;2023-12-22T11:29:01;10.60;75.60
78788;DHT22;68131;52.508;5.502;2023-12-22T11:31:32;10.60;75.50
78788;DHT22;68131;52.508;5.502;2023-12-22T11:34:02;10.60;75.30
78788;DHT22;68131;52.508;5.502;2023-12-22T11:36:34;10.60;75.20
78788;DHT22;68131;52.508;5.502;2023-12-22T11:39:13;10.60;74.90
78788;DHT22;68131;52.508;5.502;2023-12-22T11:41:43;10.60;75.10
78788;DHT22;68131;52.508;5.502;2023-12-22T11:44:12;10.70;75.00
78788;DHT22;68131;52.508;5.502;2023-12-22T11:46:41;10.70;75.00
78788;DHT22;68131;52.508;5.502;2023-12-22T11:49:10;10.70;75.10
78788;DHT22;68131;52.508;5.502;2023-12-22T11:51:40;10.70;75.10
78788;DHT22;68131;52.508;5.502;2023-12-22T11:57:29;10.80;74.90
78788;DHT22;68131;52.508;5.502;2023-12-22T12:00:02;10.80;75.00
78788;DHT22;68131;52.508;5.502;2023-12-22T12:02:40;10.80;74.90
78788;DHT22;68131;52.508;5.502;2023-12-22T12:05:11;10.80;74.80
78788;DHT22;68131;52.508;5.502;2023-12-22T12:07:43;10.90;74.90
78788;DHT22;68131;52.508;5.502;2023-12-22T12:10:50;10.90;74.70
78788;DHT22;68131;52.508;5.502;2023-12-22T12:13:24;10.90;74.70
78788;DHT22;68131;52.508;5.502;2023-12-22T12:15:55;10.90;74.50
78788;DHT22;68131;52.508;5.502;2023-12-22T12:18:27;10.90;74.50
78788;DHT22;68131;52.508;5.502;2023-12-22T12:20:57;10.90;74.40
78788;DHT22;68131;52.508;5.502;2023-12-22T12:23:27;10.90;74.50
78788;DHT22;68131;52.508;5.502;2023-12-22T12:25:54;10.90;74.40
78788;DHT22;68131;52.508;5.502;2023-12-22T12:28:30;10.90;74.50
78788;DHT22;68131;52.508;5.502;2023-12-22T12:31:00;10.90;74.60
78788;DHT22;68131;52.508;5.502;2023-12-22T12:33:30;10.90;74.60
78788;DHT22;68131;52.508;5.502;2023-12-22T12:36:01;10.90;74.60
78788;DHT22;68131;52.508;5.502;2023-12-22T12:38:39;10.90;74.60
78788;DHT22;68131;52.508;5.502;2023-12-22T12:41:10;10.90;74.90
78788;DHT22;68131;52.508;5.502;2023-12-22T12:43:43;10.80;75.10
78788;DHT22;68131;52.508;5.502;2023-12-22T12:46:13;10.90;75.30
78788;DHT22;68131;52.508;5.502;2023-12-22T12:48:42;10.80;75.30
78788;DHT22;68131;52.508;5.502;2023-12-22T12:51:11;10.80;75.30
78788;DHT22;68131;52.508;5.502;2023-12-22T12:53:40;10.80;75.50
78788;DHT22;68131;52.508;5.502;2023-12-22T12:56:09;10.80;75.50
78788;DHT22;68131;52.508;5.502;2023-12-22T12:58:43;10.70;75.50
78788;DHT22;68131;52.508;5.502;2023-12-22T13:01:12;10.70;75.40
78788;DHT22;68131;52.508;5.502;2023-12-22T13:03:51;10.70;75.30
78788;DHT22;68131;52.508;5.502;2023-12-22T13:06:22;10.70;75.20
78788;DHT22;68131;52.508;5.502;2023-12-22T13:08:52;10.70;75.30
78788;DHT22;68131;52.508;5.502;2023-12-22T13:11:22;10.70;75.20
78788;DHT22;68131;52.508;5.502;2023-12-22T13:13:57;10.70;75.20
78788;DHT22;68131;52.508;5.502;2023-12-22T13:16:27;10.70;75.10
78788;DHT22;68131;52.508;5.502;2023-12-22T13:18:57;10.80;75.00
78788;DHT22;68131;52.508;5.502;2023-12-22T13:21:27;10.80;74.90
78788;DHT22;68131;52.508;5.502;2023-12-22T13:24:09;10.80;74.90
78788;DHT22;68131;52.508;5.502;2023-12-22T13:26:39;10.90;74.80
78788;DHT22;68131;52.508;5.502;2023-12-22T13:29:13;10.90;74.80
78788;DHT22;68131;52.508;5.502;2023-12-22T13:31:42;10.90;74.80
78788;DHT22;68131;52.508;5.502;2023-12-22T13:34:13;10.90;74.90
78788;DHT22;68131;52.508;5.502;2023-12-22T13:36:42;10.90;74.80
78788;DHT22;68131;52.508;5.502;2023-12-22T13:39:11;10.90;74.80
78788;DHT22;68131;52.508;5.502;2023-12-22T13:41:42;10.90;74.90
78788;DHT22;68131;52.508;5.502;2023-12-22T13:44:17;10.90;75.00
78788;DHT22;68131;52.508;5.502;2023-12-22T13:46:46;10.90;75.00
78788;DHT22;68131;52.508;5.502;2023-12-22T13:49:15;10.90;75.00
78788;DHT22;68131;52.508;5.502;2023-12-22T13:51:45;10.90;75.10
78788;DHT22;68131;52.508;5.502;2023-12-22T13:54:15;10.90;75.10
78788;DHT22;68131;52.508;5.502;2023-12-22T13:56:44;10.90;75.20
78788;DHT22;68131;52.508;5.502;2023-12-22T13:59:30;10.80;75.10
78788;DHT22;68131;52.508;5.502;2023-12-22T14:01:59;10.80;75.10
78788;DHT22;68131;52.508;5.502;2023-12-22T14:04:29;10.80;75.00
78788;DHT22;68131;52.508;5.502;2023-12-22T14:06:58;10.80;75.10
78788;DHT22;68131;52.508;5.502;2023-12-22T14:09:27;10.80;75.20
78788;DHT22;68131;52.508;5.502;2023-12-22T14:11:59;10.80;75.20
78788;DHT22;68131;52.508;5.502;2023-12-22T14:14:33;10.80;75.20
78788;DHT22;68131;52.508;5.502;2023-12-22T14:17:02;10.80;75.20
78788;DHT22;68131;52.508;5.502;2023-12-22T14:19:31;10.80;75.20
78788;DHT22;68131;52.508;5.502;2023-12-22T14:22:00;10.80;75.30
78788;DHT22;68131;52.508;5.502;2023-12-22T14:24:29;10.80;75.20
78788;DHT22;68131;52.508;5.502;2023-12-22T14:27:00;10.80;75.10
78788;DHT22;68131;52.508;5.502;2023-12-22T14:29:29;10.80;75.10
78788;DHT22;68131;52.508;5.502;2023-12-22T14:32:02;10.80;75.10
78788;DHT22;68131;52.508;5.502;2023-12-22T14:34:34;10.80;75.20
78788;DHT22;68131;52.508;5.502;2023-12-22T14:37:03;10.80;75.30
78788;DHT22;68131;52.508;5.502;2023-12-22T14:39:32;10.70;75.70
78788;DHT22;68131;52.508;5.502;2023-12-22T14:42:02;10.70;75.80
78788;DHT22;68131;52.508;5.502;2023-12-22T14:44:31;10.70;75.60
78788;DHT22;68131;52.508;5.502;2023-12-22T14:47:03;10.70;75.60
78788;DHT22;68131;52.508;5.502;2023-12-22T14:49:32;10.70;75.60
78788;DHT22;68131;52.508;5.502;2023-12-22T14:52:02;10.70;75.60
78788;DHT22;68131;52.508;5.502;2023-12-22T14:54:31;10.70;75.60
78788;DHT22;68131;52.508;5.502;2023-12-22T14:57:00;10.70;75.50
78788;DHT22;68131;52.508;5.502;2023-12-22T14:59:29;10.70;75.60
78788;DHT22;68131;52.508;5.502;2023-12-22T15:01:58;10.70;75.60
78788;DHT22;68131;52.508;5.502;2023-12-22T15:04:31;10.80;75.40
78788;DHT22;68131;52.508;5.502;2023-12-22T15:07:00;10.80;75.30
78788;DHT22;68131;52.508;5.502;2023-12-22T15:09:30;10.80;75.20
78788;DHT22;68131;52.508;5.502;2023-12-22T15:11:59;10.80;75.10
78788;DHT22;68131;52.508;5.502;2023-12-22T15:14:28;10.80;75.10
78788;DHT22;68131;52.508;5.502;2023-12-22T15:16:57;10.90;75.10
78788;DHT22;68131;52.508;5.502;2023-12-22T15:19:29;10.80;75.20
78788;DHT22;68131;52.508;5.502;2023-12-22T15:21:58;10.80;75.40
78788;DHT22;68131;52.508;5.502;2023-12-22T15:24:27;10.70;75.50
78788;DHT22;68131;52.508;5.502;2023-12-22T15:26:56;10.70;75.60
78788;DHT22;68131;52.508;5.502;2023-12-22T15:29:25;10.60;75.70
78788;DHT22;68131;52.508;5.502;2023-12-22T15:31:54;10.60;75.40
78788;DHT22;68131;52.508;5.502;2023-12-22T15:34:28;10.50;75.40
78788;DHT22;68131;52.508;5.502;2023-12-22T15:36:57;10.30;75.20
78788;DHT22;68131;52.508;5.502;2023-12-22T15:39:26;10.10;75.10
78788;DHT22;68131;52.508;5.502;2023-12-22T15:41:57;10.00;75.40
78788;DHT22;68131;52.508;5.502;2023-12-22T15:44:26;9.80;75.60
78788;DHT22;68131;52.508;5.502;2023-12-22T15:46:56;9.70;75.80
78788;DHT22;68131;52.508;5.502;2023-12-22T15:49:25;9.60;75.90
78788;DHT22;68131;52.508;5.502;2023-12-22T15:51:58;9.50;76.10
78788;DHT22;68131;52.508;5.502;2023-12-22T15:54:27;9.40;76.20
78788;DHT22;68131;52.508;5.502;2023-12-22T15:56:56;9.30;76.40
78788;DHT22;68131;52.508;5.502;2023-12-22T15:59:25;9.30;76.40
78788;DHT22;68131;52.508;5.502;2023-12-22T16:01:54;9.20;76.50
78788;DHT22;68131;52.508;5.502;2023-12-22T16:04:24;9.20;76.60
78788;DHT22;68131;52.508;5.502;2023-12-22T16:06:53;9.10;76.70